createdAt,value
2018-01-15T00:00:17.715Z,1020.45
2018-01-15T00:01:17.731Z,1020.55
2018-01-15T00:02:17.733Z,1020.44
2018-01-15T00:03:17.748Z,1020.38
2018-01-15T00:04:17.753Z,1020.39
2018-01-15T00:05:17.758Z,1020.39
2018-01-15T00:06:17.756Z,1020.41
2018-01-15T00:07:17.766Z,1020.40
2018-01-15T00:08:17.780Z,1020.39
2018-01-15T00:09:17.783Z,1020.37
2018-01-15T00:10:17.800Z,1020.39
2018-01-15T00:11:17.800Z,1020.38
2018-01-15T00:12:17.808Z,1020.40
2018-01-15T00:13:17.819Z,1020.34
2018-01-15T00:14:17.844Z,1020.33
2018-01-15T00:15:17.843Z,1020.27
2018-01-15T00:16:17.843Z,1020.27
2018-01-15T00:17:17.860Z,1020.32
2018-01-15T00:18:17.875Z,1020.29
2018-01-15T00:19:17.878Z,1020.24
2018-01-15T00:20:17.888Z,1020.20
2018-01-15T00:21:17.889Z,1020.19
2018-01-15T00:22:17.900Z,1020.21
2018-01-15T00:23:17.913Z,1020.25
2018-01-15T00:24:17.915Z,1020.24
2018-01-15T00:25:17.926Z,1020.17
2018-01-15T00:26:17.941Z,1020.20
2018-01-15T00:27:17.944Z,1020.11
2018-01-15T00:28:17.957Z,1020.09
2018-01-15T00:29:17.961Z,1020.10
2018-01-15T00:30:17.976Z,1020.10
2018-01-15T00:31:17.985Z,1020.07
2018-01-15T00:32:17.994Z,1020.11
2018-01-15T00:33:18.003Z,1020.04
2018-01-15T00:34:18.004Z,1020.11
2018-01-15T00:35:18.020Z,1020.09
2018-01-15T00:36:18.022Z,1020.09
2018-01-15T00:37:18.022Z,1020.16
2018-01-15T00:38:18.029Z,1020.08
2018-01-15T00:39:18.038Z,1020.07
2018-01-15T00:40:18.046Z,1020.07
2018-01-15T00:41:18.054Z,1020.08
2018-01-15T00:42:18.070Z,1020.06
2018-01-15T00:43:18.072Z,1020.06
2018-01-15T00:44:18.081Z,1020.05
2018-01-15T00:45:18.096Z,1020.06
2018-01-15T00:46:18.109Z,1020.09
2018-01-15T00:47:18.115Z,1020.07
2018-01-15T00:48:18.117Z,1020.05
2018-01-15T00:49:18.132Z,1020.04
2018-01-15T00:50:18.141Z,1019.96
2018-01-15T00:51:18.149Z,1019.97
2018-01-15T00:52:18.152Z,1019.97
2018-01-15T00:53:18.168Z,1019.93
2018-01-15T00:54:18.177Z,1019.92
2018-01-15T00:55:18.180Z,1019.92
2018-01-15T00:56:18.195Z,1019.96
2018-01-15T00:57:18.196Z,1019.93
2018-01-15T00:58:18.206Z,1019.92
2018-01-15T00:59:18.214Z,1019.85
2018-01-15T01:00:18.225Z,1019.84
2018-01-15T01:01:18.232Z,1019.82
2018-01-15T01:02:18.240Z,1019.77
2018-01-15T01:03:18.251Z,1019.76
2018-01-15T01:04:18.259Z,1019.77
2018-01-15T01:05:18.267Z,1019.72
2018-01-15T01:06:18.264Z,1019.76
2018-01-15T01:07:18.280Z,1019.75
2018-01-15T01:08:18.294Z,1019.74
2018-01-15T01:09:18.292Z,1019.70
2018-01-15T01:10:18.299Z,1019.76
2018-01-15T01:11:18.315Z,1019.66
2018-01-15T01:12:18.325Z,1019.70
2018-01-15T01:13:18.328Z,1019.61
2018-01-15T01:14:18.342Z,1019.68
2018-01-15T01:15:18.353Z,1019.67
2018-01-15T01:16:18.360Z,1019.66
2018-01-15T01:17:18.362Z,1019.63
2018-01-15T01:18:18.370Z,1019.68
2018-01-15T01:19:18.387Z,1019.64
2018-01-15T01:20:18.394Z,1019.61
2018-01-15T01:21:18.397Z,1019.61
2018-01-15T01:22:18.412Z,1019.58
2018-01-15T01:23:18.422Z,1019.52
2018-01-15T01:24:18.432Z,1019.53
2018-01-15T01:25:18.440Z,1019.49
2018-01-15T01:26:18.442Z,1019.49
2018-01-15T01:27:18.459Z,1019.53
2018-01-15T01:28:18.472Z,1019.48
2018-01-15T01:29:18.475Z,1019.52
2018-01-15T01:30:18.484Z,1019.50
2018-01-15T01:31:18.493Z,1019.48
2018-01-15T01:32:18.502Z,1019.45
2018-01-15T01:33:18.511Z,1019.46
2018-01-15T01:34:18.512Z,1019.46
2018-01-15T01:35:18.511Z,1019.41
2018-01-15T01:36:18.531Z,1019.40
2018-01-15T01:37:18.536Z,1019.38
2018-01-15T01:38:18.539Z,1019.39
2018-01-15T01:39:18.544Z,1019.28
2018-01-15T01:40:18.560Z,1019.30
2018-01-15T01:41:18.570Z,1019.21
2018-01-15T01:42:18.579Z,1019.15
2018-01-15T01:43:18.581Z,1019.15
2018-01-15T01:44:18.590Z,1019.12
2018-01-15T01:45:18.598Z,1019.12
2018-01-15T01:46:18.613Z,1019.10
2018-01-15T01:47:18.616Z,1019.11
2018-01-15T01:48:18.631Z,1019.04
2018-01-15T01:49:18.635Z,1019.04
2018-01-15T01:50:18.649Z,1019.06
2018-01-15T01:51:18.658Z,1019.05
2018-01-15T01:52:18.660Z,1019.01
2018-01-15T01:53:18.669Z,1019.02
2018-01-15T01:54:18.684Z,1019.00
2018-01-15T01:55:18.686Z,1018.97
2018-01-15T01:56:18.696Z,1018.95
2018-01-15T01:57:18.707Z,1018.95
2018-01-15T01:58:18.714Z,1018.97
2018-01-15T01:59:18.729Z,1018.93
2018-01-15T02:00:18.739Z,1018.90
2018-01-15T02:01:18.746Z,1018.88
2018-01-15T02:02:18.756Z,1018.91
2018-01-15T02:03:18.768Z,1018.87
2018-01-15T02:04:18.775Z,1018.83
2018-01-15T02:05:18.776Z,1018.79
2018-01-15T02:06:18.783Z,1018.77
2018-01-15T02:07:18.781Z,1018.78
2018-01-15T02:08:18.861Z,1018.72
2018-01-15T02:09:18.800Z,1018.72
2018-01-15T02:10:18.814Z,1018.72
2018-01-15T02:11:18.818Z,1018.68
2018-01-15T02:12:18.844Z,1018.66
2018-01-15T02:13:18.844Z,1018.65
2018-01-15T02:14:18.851Z,1018.72
2018-01-15T02:15:18.860Z,1018.71
2018-01-15T02:16:18.862Z,1018.62
2018-01-15T02:17:18.871Z,1018.56
2018-01-15T02:18:18.879Z,1018.62
2018-01-15T02:19:18.888Z,1018.53
2018-01-15T02:20:18.897Z,1018.51
2018-01-15T02:21:18.914Z,1018.58
2018-01-15T02:22:18.922Z,1018.59
2018-01-15T02:23:18.931Z,1018.54
2018-01-15T02:24:18.938Z,1018.56
2018-01-15T02:25:18.947Z,1018.52
2018-01-15T02:26:18.967Z,1018.51
2018-01-15T02:27:18.961Z,1018.49
2018-01-15T02:28:18.968Z,1018.44
2018-01-15T02:29:18.977Z,1018.43
2018-01-15T02:30:18.987Z,1018.41
2018-01-15T02:31:18.998Z,1018.39
2018-01-15T02:32:19.009Z,1018.40
2018-01-15T02:33:19.014Z,1018.36
2018-01-15T02:34:19.021Z,1018.36
2018-01-15T02:35:19.020Z,1018.37
2018-01-15T02:36:19.034Z,1018.42
2018-01-15T02:37:19.038Z,1018.35
2018-01-15T02:38:19.045Z,1018.36
2018-01-15T02:39:19.356Z,1018.35
2018-01-15T02:40:19.069Z,1018.31
2018-01-15T02:41:19.079Z,1018.31
2018-01-15T02:42:19.088Z,1018.31
2018-01-15T02:43:19.096Z,1018.26
2018-01-15T02:44:19.098Z,1018.26
2018-01-15T02:45:19.107Z,1018.22
2018-01-15T02:46:19.123Z,1018.22
2018-01-15T02:47:19.124Z,1018.23
2018-01-15T02:48:19.146Z,1018.22
2018-01-15T02:49:19.142Z,1018.23
2018-01-15T02:50:19.159Z,1018.23
2018-01-15T02:51:19.162Z,1018.19
2018-01-15T02:52:19.170Z,1018.15
2018-01-15T02:53:19.184Z,1018.16
2018-01-15T02:54:19.188Z,1018.14
2018-01-15T02:55:19.202Z,1018.11
2018-01-15T02:56:19.206Z,1018.05
2018-01-15T02:57:19.212Z,1018.05
2018-01-15T02:58:19.224Z,1018.03
2018-01-15T02:59:19.532Z,1018.00
2018-01-15T03:00:19.247Z,1017.98
2018-01-15T03:01:19.268Z,1018.00
2018-01-15T03:02:19.259Z,1017.95
2018-01-15T03:03:19.267Z,1017.98
2018-01-15T03:04:19.276Z,1017.94
2018-01-15T03:05:19.286Z,1017.93
2018-01-15T03:06:19.301Z,1017.91
2018-01-15T03:07:19.292Z,1017.85
2018-01-15T03:08:19.299Z,1017.88
2018-01-15T03:09:19.309Z,1017.86
2018-01-15T03:10:19.323Z,1017.83
2018-01-15T03:11:19.326Z,1017.84
2018-01-15T03:12:19.334Z,1017.82
2018-01-15T03:13:19.343Z,1017.80
2018-01-15T03:14:19.360Z,1017.78
2018-01-15T03:15:19.368Z,1017.83
2018-01-15T03:16:19.390Z,1017.80
2018-01-15T03:17:19.382Z,1017.84
2018-01-15T03:18:19.387Z,1017.80
2018-01-15T03:19:19.697Z,1017.76
2018-01-15T03:20:19.414Z,1017.79
2018-01-15T03:21:19.414Z,1017.78
2018-01-15T03:22:19.423Z,1017.71
2018-01-15T03:23:19.433Z,1017.72
2018-01-15T03:24:19.441Z,1017.72
2018-01-15T03:25:19.457Z,1017.65
2018-01-15T03:26:19.465Z,1017.61
2018-01-15T03:27:19.477Z,1017.61
2018-01-15T03:28:19.478Z,1017.60
2018-01-15T03:29:19.491Z,1017.58
2018-01-15T03:30:19.521Z,1017.56
2018-01-15T03:31:19.511Z,1017.59
2018-01-15T03:32:19.520Z,1017.57
2018-01-15T03:33:19.521Z,1017.53
2018-01-15T03:34:19.536Z,1017.56
2018-01-15T03:35:19.539Z,1017.58
2018-01-15T03:36:19.547Z,1017.57
2018-01-15T03:37:19.568Z,1017.54
2018-01-15T03:38:19.572Z,1017.48
2018-01-15T03:39:19.876Z,1017.49
2018-01-15T03:40:19.583Z,1017.44
2018-01-15T03:41:19.599Z,1017.40
2018-01-15T03:42:19.603Z,1017.39
2018-01-15T03:43:19.610Z,1017.33
2018-01-15T03:44:19.620Z,1017.40
2018-01-15T03:45:19.628Z,1017.39
2018-01-15T03:46:19.637Z,1017.35
2018-01-15T03:47:19.635Z,1017.34
2018-01-15T03:48:19.661Z,1017.37
2018-01-15T03:49:19.676Z,1017.38
2018-01-15T03:50:19.662Z,1017.31
2018-01-15T03:51:19.676Z,1017.33
2018-01-15T03:52:19.690Z,1017.28
2018-01-15T03:53:19.689Z,1017.28
2018-01-15T03:54:19.704Z,1017.29
2018-01-15T03:55:19.724Z,1017.28
2018-01-15T03:56:19.722Z,1017.24
2018-01-15T03:57:19.731Z,1017.25
2018-01-15T03:58:19.732Z,1017.23
2018-01-15T03:59:19.741Z,1017.24
2018-01-15T04:00:19.761Z,1017.19
2018-01-15T04:01:19.765Z,1017.15
2018-01-15T04:02:19.771Z,1017.12
2018-01-15T04:03:19.777Z,1017.11
2018-01-15T04:04:19.785Z,1017.10
2018-01-15T04:05:19.812Z,1017.12
2018-01-15T04:06:19.810Z,1017.18
2018-01-15T04:07:19.811Z,1017.11
2018-01-15T04:08:19.831Z,1017.16
2018-01-15T04:09:19.847Z,1017.11
2018-01-15T04:10:19.856Z,1017.15
2018-01-15T04:11:19.854Z,1017.10
2018-01-15T04:12:19.856Z,1017.05
2018-01-15T04:13:19.874Z,1017.06
2018-01-15T04:14:19.881Z,1017.03
2018-01-15T04:15:19.889Z,1016.99
2018-01-15T04:16:19.898Z,1017.03
2018-01-15T04:17:19.901Z,1017.02
2018-01-15T04:18:19.908Z,1016.98
2018-01-15T04:19:19.925Z,1016.98
2018-01-15T04:20:19.933Z,1017.01
2018-01-15T04:21:19.938Z,1016.97
2018-01-15T04:22:19.945Z,1016.94
2018-01-15T04:23:19.953Z,1016.95
2018-01-15T04:24:19.962Z,1016.94
2018-01-15T04:25:19.972Z,1016.94
2018-01-15T04:26:19.980Z,1016.86
2018-01-15T04:27:19.990Z,1016.88
2018-01-15T04:28:19.998Z,1016.82
2018-01-15T04:29:20.008Z,1016.85
2018-01-15T04:30:20.017Z,1016.78
2018-01-15T04:31:20.025Z,1016.79
2018-01-15T04:32:20.040Z,1016.70
2018-01-15T04:33:20.043Z,1016.74
2018-01-15T04:34:20.052Z,1016.73
2018-01-15T04:35:20.068Z,1016.70
2018-01-15T04:36:20.081Z,1016.63
2018-01-15T04:37:20.086Z,1016.65
2018-01-15T04:38:20.088Z,1016.63
2018-01-15T04:39:20.396Z,1016.64
2018-01-15T04:40:20.115Z,1016.61
2018-01-15T04:41:20.120Z,1016.54
2018-01-15T04:42:20.130Z,1016.51
2018-01-15T04:43:20.131Z,1016.47
2018-01-15T04:44:20.141Z,1016.50
2018-01-15T04:45:20.157Z,1016.50
2018-01-15T04:46:20.164Z,1016.51
2018-01-15T04:47:20.173Z,1016.49
2018-01-15T04:48:20.178Z,1016.44
2018-01-15T04:49:20.186Z,1016.44
2018-01-15T04:50:20.204Z,1016.38
2018-01-15T04:51:20.204Z,1016.33
2018-01-15T04:52:20.222Z,1016.33
2018-01-15T04:53:20.236Z,1016.34
2018-01-15T04:54:20.230Z,1016.38
2018-01-15T04:55:20.239Z,1016.36
2018-01-15T04:56:20.247Z,1016.34
2018-01-15T04:57:20.256Z,1016.28
2018-01-15T04:58:20.264Z,1016.32
2018-01-15T04:59:20.286Z,1016.25
2018-01-15T05:00:20.290Z,1016.27
2018-01-15T05:01:20.293Z,1016.22
2018-01-15T05:02:20.299Z,1016.27
2018-01-15T05:03:20.309Z,1016.26
2018-01-15T05:04:20.619Z,1016.26
2018-01-15T05:05:20.329Z,1016.24
2018-01-15T05:06:20.341Z,1016.28
2018-01-15T05:07:20.352Z,1016.28
2018-01-15T05:08:20.359Z,1016.25
2018-01-15T05:09:20.363Z,1016.27
2018-01-15T05:10:20.378Z,1016.24
2018-01-15T05:11:20.395Z,1016.25
2018-01-15T05:12:20.396Z,1016.23
2018-01-15T05:13:20.398Z,1016.23
2018-01-15T05:14:20.413Z,1016.17
2018-01-15T05:15:20.415Z,1016.18
2018-01-15T05:16:20.424Z,1016.11
2018-01-15T05:17:20.452Z,1016.14
2018-01-15T05:18:20.448Z,1016.16
2018-01-15T05:19:20.458Z,1016.14
2018-01-15T05:20:20.460Z,1016.08
2018-01-15T05:21:20.487Z,1016.14
2018-01-15T05:22:20.478Z,1016.07
2018-01-15T05:23:20.493Z,1016.08
2018-01-15T05:24:20.503Z,1016.02
2018-01-15T05:25:20.516Z,1016.06
2018-01-15T05:26:20.513Z,1016.02
2018-01-15T05:27:20.522Z,1015.97
2018-01-15T05:28:20.539Z,1016.00
2018-01-15T05:29:20.541Z,1015.92
2018-01-15T05:30:20.549Z,1015.88
2018-01-15T05:31:20.577Z,1015.90
2018-01-15T05:32:20.573Z,1015.95
2018-01-15T05:33:20.583Z,1015.86
2018-01-15T05:34:20.891Z,1015.79
2018-01-15T05:35:20.593Z,1015.82
2018-01-15T05:36:20.603Z,1015.88
2018-01-15T05:37:20.613Z,1015.83
2018-01-15T05:38:20.620Z,1015.85
2018-01-15T05:39:20.930Z,1015.83
2018-01-15T05:40:20.663Z,1015.85
2018-01-15T05:41:20.648Z,1015.85
2018-01-15T05:42:20.664Z,1015.81
2018-01-15T05:43:20.665Z,1015.88
2018-01-15T05:44:20.685Z,1015.83
2018-01-15T05:45:20.694Z,1015.89
2018-01-15T05:46:20.691Z,1015.88
2018-01-15T05:47:20.707Z,1015.83
2018-01-15T05:48:20.727Z,1015.83
2018-01-15T05:49:20.731Z,1015.81
2018-01-15T05:50:20.745Z,1015.77
2018-01-15T05:51:20.748Z,1015.82
2018-01-15T05:52:20.757Z,1015.80
2018-01-15T05:53:20.766Z,1015.81
2018-01-15T05:54:20.774Z,1015.75
2018-01-15T05:55:20.785Z,1015.72
2018-01-15T05:56:20.798Z,1015.72
2018-01-15T05:57:20.808Z,1015.72
2018-01-15T05:58:20.816Z,1015.69
2018-01-15T05:59:21.120Z,1015.67
2018-01-15T06:00:20.835Z,1015.65
2018-01-15T06:01:20.837Z,1015.64
2018-01-15T06:02:20.846Z,1015.55
2018-01-15T06:03:20.856Z,1015.61
2018-01-15T06:04:20.869Z,1015.60
2018-01-15T06:05:20.873Z,1015.59
2018-01-15T06:06:20.887Z,1015.61
2018-01-15T06:07:20.889Z,1015.60
2018-01-15T06:08:20.900Z,1015.65
2018-01-15T06:09:20.914Z,1015.61
2018-01-15T06:10:20.918Z,1015.58
2018-01-15T06:11:20.927Z,1015.58
2018-01-15T06:12:20.934Z,1015.56
2018-01-15T06:13:20.943Z,1015.57
2018-01-15T06:14:20.958Z,1015.51
2018-01-15T06:15:20.963Z,1015.54
2018-01-15T06:16:20.977Z,1015.52
2018-01-15T06:17:20.986Z,1015.56
2018-01-15T06:18:20.996Z,1015.53
2018-01-15T06:19:21.004Z,1015.53
2018-01-15T06:20:21.019Z,1015.47
2018-01-15T06:21:21.025Z,1015.46
2018-01-15T06:22:21.023Z,1015.47
2018-01-15T06:23:21.033Z,1015.45
2018-01-15T06:24:21.041Z,1015.42
2018-01-15T06:25:21.052Z,1015.47
2018-01-15T06:26:21.066Z,1015.39
2018-01-15T06:27:21.068Z,1015.45
2018-01-15T06:28:21.084Z,1015.41
2018-01-15T06:29:21.086Z,1015.43
2018-01-15T06:30:21.112Z,1015.39
2018-01-15T06:31:21.104Z,1015.36
2018-01-15T06:32:21.112Z,1015.26
2018-01-15T06:33:21.122Z,1015.34
2018-01-15T06:34:21.137Z,1015.32
2018-01-15T06:35:21.147Z,1015.27
2018-01-15T06:36:21.155Z,1015.32
2018-01-15T06:37:21.166Z,1015.33
2018-01-15T06:38:21.166Z,1015.27
2018-01-15T06:39:21.475Z,1015.28
2018-01-15T06:40:21.183Z,1015.28
2018-01-15T06:41:21.200Z,1015.26
2018-01-15T06:42:21.201Z,1015.27
2018-01-15T06:43:21.210Z,1015.26
2018-01-15T06:44:21.219Z,1015.22
2018-01-15T06:45:21.230Z,1015.29
2018-01-15T06:46:21.244Z,1015.21
2018-01-15T06:47:21.255Z,1015.25
2018-01-15T06:48:21.268Z,1015.25
2018-01-15T06:49:21.265Z,1015.20
2018-01-15T06:50:21.274Z,1015.15
2018-01-15T06:51:21.283Z,1015.18
2018-01-15T06:52:21.306Z,1015.12
2018-01-15T06:53:21.300Z,1015.18
2018-01-15T06:54:21.316Z,1015.18
2018-01-15T06:55:21.324Z,1015.18
2018-01-15T06:56:21.325Z,1015.10
2018-01-15T06:57:21.337Z,1015.12
2018-01-15T06:58:21.352Z,1015.14
2018-01-15T06:59:21.360Z,1015.14
2018-01-15T07:00:21.368Z,1015.10
2018-01-15T07:01:21.375Z,1015.09
2018-01-15T07:02:21.375Z,1015.09
2018-01-15T07:03:21.377Z,1015.12
2018-01-15T07:04:21.392Z,1015.07
2018-01-15T07:05:21.404Z,1015.08
2018-01-15T07:06:21.404Z,1015.05
2018-01-15T07:07:21.413Z,1015.10
2018-01-15T07:08:21.421Z,1015.02
2018-01-15T07:09:21.429Z,1014.96
2018-01-15T07:10:21.438Z,1015.01
2018-01-15T07:11:21.448Z,1015.01
2018-01-15T07:12:21.457Z,1014.98
2018-01-15T07:13:21.464Z,1014.93
2018-01-15T07:14:21.481Z,1014.91
2018-01-15T07:15:21.482Z,1014.92
2018-01-15T07:16:21.492Z,1014.89
2018-01-15T07:17:21.502Z,1014.86
2018-01-15T07:18:21.510Z,1014.87
2018-01-15T07:19:21.519Z,1014.92
2018-01-15T07:20:21.529Z,1014.91
2018-01-15T07:21:21.526Z,1014.88
2018-01-15T07:22:21.534Z,1014.87
2018-01-15T07:23:21.551Z,1014.92
2018-01-15T07:24:21.557Z,1014.87
2018-01-15T07:25:21.561Z,1014.81
2018-01-15T07:26:21.574Z,1014.77
2018-01-15T07:27:21.578Z,1014.81
2018-01-15T07:28:21.592Z,1014.79
2018-01-15T07:29:21.602Z,1014.78
2018-01-15T07:30:21.605Z,1014.79
2018-01-15T07:31:21.614Z,1014.83
2018-01-15T07:32:21.622Z,1014.82
2018-01-15T07:33:21.637Z,1014.80
2018-01-15T07:34:21.647Z,1014.81
2018-01-15T07:35:21.639Z,1014.80
2018-01-15T07:36:21.646Z,1014.83
2018-01-15T07:37:21.658Z,1014.81
2018-01-15T07:38:21.664Z,1014.80
2018-01-15T07:39:21.671Z,1014.76
2018-01-15T07:40:21.681Z,1014.76
2018-01-15T07:41:21.689Z,1014.81
2018-01-15T07:42:21.705Z,1014.85
2018-01-15T07:43:21.721Z,1014.77
2018-01-15T07:44:21.723Z,1014.73
2018-01-15T07:45:21.725Z,1014.80
2018-01-15T07:46:21.734Z,1014.74
2018-01-15T07:47:21.743Z,1014.74
2018-01-15T07:48:21.758Z,1014.72
2018-01-15T07:49:21.767Z,1014.67
2018-01-15T07:50:21.771Z,1014.74
2018-01-15T07:51:21.766Z,1014.66
2018-01-15T07:52:21.774Z,1014.64
2018-01-15T07:53:21.785Z,1014.68
2018-01-15T07:54:21.792Z,1014.68
2018-01-15T07:55:21.802Z,1014.66
2018-01-15T07:56:21.810Z,1014.62
2018-01-15T07:57:21.826Z,1014.53
2018-01-15T07:58:21.829Z,1014.56
2018-01-15T07:59:22.137Z,1014.54
2018-01-15T08:00:21.853Z,1014.53
2018-01-15T08:01:21.863Z,1014.53
2018-01-15T08:02:21.864Z,1014.51
2018-01-15T08:03:21.868Z,1014.54
2018-01-15T08:04:21.870Z,1014.51
2018-01-15T08:05:21.878Z,1014.50
2018-01-15T08:06:21.888Z,1014.49
2018-01-15T08:07:21.896Z,1014.47
2018-01-15T08:08:21.911Z,1014.44
2018-01-15T08:09:21.920Z,1014.41
2018-01-15T08:10:21.927Z,1014.41
2018-01-15T08:11:21.938Z,1014.38
2018-01-15T08:12:21.947Z,1014.42
2018-01-15T08:13:21.948Z,1014.41
2018-01-15T08:14:21.958Z,1014.37
2018-01-15T08:15:21.973Z,1014.36
2018-01-15T08:16:21.983Z,1014.38
2018-01-15T08:17:21.992Z,1014.26
2018-01-15T08:18:21.989Z,1014.30
2018-01-15T08:19:21.996Z,1014.29
2018-01-15T08:20:22.006Z,1014.28
2018-01-15T08:21:22.008Z,1014.30
2018-01-15T08:22:22.017Z,1014.28
2018-01-15T08:23:22.034Z,1014.25
2018-01-15T08:24:22.035Z,1014.25
2018-01-15T08:25:22.044Z,1014.17
2018-01-15T08:26:22.080Z,1014.18
2018-01-15T08:27:22.076Z,1014.14
2018-01-15T08:28:22.083Z,1014.12
2018-01-15T08:29:22.081Z,1014.09
2018-01-15T08:30:22.088Z,1014.06
2018-01-15T08:31:22.097Z,1014.04
2018-01-15T08:32:22.119Z,1014.02
2018-01-15T08:33:22.115Z,1014.03
2018-01-15T08:34:22.131Z,1013.99
2018-01-15T08:35:22.135Z,1013.99
2018-01-15T08:36:22.148Z,1013.95
2018-01-15T08:37:22.146Z,1013.95
2018-01-15T08:38:22.154Z,1013.86
2018-01-15T08:39:22.161Z,1013.91
2018-01-15T08:40:22.164Z,1013.82
2018-01-15T08:41:22.173Z,1013.85
2018-01-15T08:42:22.188Z,1013.82
2018-01-15T08:43:22.192Z,1013.84
2018-01-15T08:44:22.208Z,1013.84
2018-01-15T08:45:22.208Z,1013.81
2018-01-15T08:46:22.217Z,1013.82
2018-01-15T08:47:22.227Z,1013.83
2018-01-15T08:48:22.236Z,1013.79
2018-01-15T08:49:22.250Z,1013.80
2018-01-15T08:50:22.255Z,1013.74
2018-01-15T08:51:22.269Z,1013.79
2018-01-15T08:52:22.271Z,1013.77
2018-01-15T08:53:22.280Z,1013.72
2018-01-15T08:54:22.292Z,1013.72
2018-01-15T08:55:22.304Z,1013.72
2018-01-15T08:56:22.307Z,1013.69
2018-01-15T08:57:22.316Z,1013.69
2018-01-15T08:58:22.324Z,1013.69
2018-01-15T08:59:22.341Z,1013.68
2018-01-15T09:00:22.343Z,1013.64
2018-01-15T09:01:22.352Z,1013.67
2018-01-15T09:02:22.348Z,1013.67
2018-01-15T09:03:22.357Z,1013.66
2018-01-15T09:04:22.373Z,1013.60
2018-01-15T09:05:22.375Z,1013.64
2018-01-15T09:06:22.390Z,1013.62
2018-01-15T09:07:22.392Z,1013.61
2018-01-15T09:08:22.400Z,1013.60
2018-01-15T09:09:22.416Z,1013.57
2018-01-15T09:10:22.419Z,1013.53
2018-01-15T09:11:22.428Z,1013.57
2018-01-15T09:12:22.438Z,1013.59
2018-01-15T09:13:22.449Z,1013.55
2018-01-15T09:14:22.454Z,1013.46
2018-01-15T09:15:22.462Z,1013.52
2018-01-15T09:16:22.479Z,1013.50
2018-01-15T09:17:22.480Z,1013.49
2018-01-15T09:18:22.489Z,1013.46
2018-01-15T09:19:22.498Z,1013.45
2018-01-15T09:20:22.520Z,1013.30
2018-01-15T09:21:22.516Z,1013.32
2018-01-15T09:22:22.545Z,1013.35
2018-01-15T09:23:22.534Z,1013.35
2018-01-15T09:24:22.551Z,1013.35
2018-01-15T09:25:22.558Z,1013.30
2018-01-15T09:26:22.563Z,1013.33
2018-01-15T09:27:22.576Z,1013.34
2018-01-15T09:28:22.585Z,1013.30
2018-01-15T09:29:22.594Z,1013.24
2018-01-15T09:30:22.596Z,1013.29
2018-01-15T09:31:22.606Z,1013.19
2018-01-15T09:32:22.614Z,1013.17
2018-01-15T09:33:22.623Z,1013.23
2018-01-15T09:34:22.638Z,1013.21
2018-01-15T09:35:22.647Z,1013.17
2018-01-15T09:36:22.649Z,1013.17
2018-01-15T09:37:22.659Z,1013.19
2018-01-15T09:38:22.673Z,1013.04
2018-01-15T09:39:22.676Z,1013.09
2018-01-15T09:40:22.685Z,1013.08
2018-01-15T09:41:22.699Z,1013.12
2018-01-15T09:42:22.702Z,1013.10
2018-01-15T09:43:22.712Z,1013.09
2018-01-15T09:44:22.721Z,1013.03
2018-01-15T09:45:22.749Z,1013.09
2018-01-15T09:46:22.744Z,1013.08
2018-01-15T09:47:22.767Z,1012.96
2018-01-15T09:48:22.769Z,1012.99
2018-01-15T09:49:22.784Z,1013.03
2018-01-15T09:50:22.788Z,1012.95
2018-01-15T09:51:22.796Z,1012.90
2018-01-15T09:52:22.804Z,1012.99
2018-01-15T09:53:22.812Z,1012.94
2018-01-15T09:54:22.828Z,1012.87
2018-01-15T09:55:22.837Z,1012.84
2018-01-15T09:56:22.841Z,1012.78
2018-01-15T09:57:22.854Z,1012.78
2018-01-15T09:58:22.857Z,1012.75
2018-01-15T09:59:22.869Z,1012.71
2018-01-15T10:00:22.882Z,1012.73
2018-01-15T10:01:22.884Z,1012.67
2018-01-15T10:02:22.899Z,1012.64
2018-01-15T10:03:22.904Z,1012.54
2018-01-15T10:04:22.910Z,1012.58
2018-01-15T10:05:22.919Z,1012.49
2018-01-15T10:06:22.930Z,1012.54
2018-01-15T10:07:22.939Z,1012.52
2018-01-15T10:08:22.967Z,1012.49
2018-01-15T10:09:22.969Z,1012.48
2018-01-15T10:10:22.977Z,1012.53
2018-01-15T10:11:22.990Z,1012.45
2018-01-15T10:12:23.001Z,1012.41
2018-01-15T10:13:23.003Z,1012.39
2018-01-15T10:14:23.015Z,1012.31
2018-01-15T10:15:23.027Z,1012.30
2018-01-15T10:16:23.029Z,1012.24
2018-01-15T10:17:23.039Z,1012.29
2018-01-15T10:18:23.053Z,1012.24
2018-01-15T10:19:23.061Z,1012.24
2018-01-15T10:20:23.078Z,1012.16
2018-01-15T10:21:23.086Z,1012.22
2018-01-15T10:22:23.092Z,1012.25
2018-01-15T10:23:23.104Z,1012.19
2018-01-15T10:24:23.116Z,1012.20
2018-01-15T10:25:23.121Z,1012.12
2018-01-15T10:26:23.131Z,1012.12
2018-01-15T10:27:23.140Z,1012.09
2018-01-15T10:28:23.156Z,1012.04
2018-01-15T10:29:23.161Z,1012.10
2018-01-15T10:30:23.174Z,1012.01
2018-01-15T10:31:23.176Z,1011.99
2018-01-15T10:32:23.192Z,1012.00
2018-01-15T10:33:23.212Z,1011.88
2018-01-15T10:34:23.220Z,1011.94
2018-01-15T10:35:23.224Z,1011.90
2018-01-15T10:36:23.234Z,1011.87
2018-01-15T10:37:23.248Z,1011.84
2018-01-15T10:38:23.256Z,1011.90
2018-01-15T10:39:23.261Z,1011.84
2018-01-15T10:40:23.275Z,1011.76
2018-01-15T10:41:23.283Z,1011.74
2018-01-15T10:42:23.285Z,1011.68
2018-01-15T10:43:23.306Z,1011.69
2018-01-15T10:44:23.316Z,1011.66
2018-01-15T10:45:23.332Z,1011.57
2018-01-15T10:46:23.335Z,1011.57
2018-01-15T10:47:23.349Z,1011.63
2018-01-15T10:48:23.357Z,1011.56
2018-01-15T10:49:23.368Z,1011.54
2018-01-15T10:50:23.383Z,1011.47
2018-01-15T10:51:23.377Z,1011.52
2018-01-15T10:52:23.400Z,1011.48
2018-01-15T10:53:23.415Z,1011.42
2018-01-15T10:54:23.417Z,1011.36
2018-01-15T10:55:23.467Z,1011.31
2018-01-15T10:56:23.442Z,1011.26
2018-01-15T10:57:23.444Z,1011.27
2018-01-15T10:58:23.466Z,1011.28
2018-01-15T10:59:23.467Z,1011.24
2018-01-15T11:00:23.479Z,1011.15
2018-01-15T11:01:23.491Z,1011.08
2018-01-15T11:02:23.502Z,1011.09
2018-01-15T11:03:23.509Z,1011.03
2018-01-15T11:04:23.518Z,1011.06
2018-01-15T11:05:23.527Z,1010.97
2018-01-15T11:06:23.543Z,1011.01
2018-01-15T11:07:23.545Z,1010.92
2018-01-15T11:08:23.573Z,1010.90
2018-01-15T11:09:23.579Z,1010.89
2018-01-15T11:10:23.584Z,1010.85
2018-01-15T11:11:23.594Z,1010.85
2018-01-15T11:12:23.608Z,1010.77
2018-01-15T11:13:23.636Z,1010.73
2018-01-15T11:14:23.621Z,1010.77
2018-01-15T11:15:23.648Z,1010.71
2018-01-15T11:16:23.662Z,1010.71
2018-01-15T11:17:23.660Z,1010.78
2018-01-15T11:18:23.707Z,1010.70
2018-01-15T11:19:23.697Z,1010.71
2018-01-15T11:20:23.693Z,1010.68
2018-01-15T11:21:23.714Z,1010.69
2018-01-15T11:22:23.716Z,1010.65
2018-01-15T11:23:23.725Z,1010.65
2018-01-15T11:24:23.735Z,1010.63
2018-01-15T11:25:23.743Z,1010.59
2018-01-15T11:26:23.752Z,1010.56
2018-01-15T11:27:23.774Z,1010.58
2018-01-15T11:28:23.787Z,1010.50
2018-01-15T11:29:23.796Z,1010.47
2018-01-15T11:30:23.800Z,1010.46
2018-01-15T11:31:23.815Z,1010.39
2018-01-15T11:32:23.830Z,1010.37
2018-01-15T11:33:23.839Z,1010.43
2018-01-15T11:34:23.854Z,1010.34
2018-01-15T11:35:23.864Z,1010.36
2018-01-15T11:36:23.864Z,1010.33
2018-01-15T11:37:23.875Z,1010.26
2018-01-15T11:38:23.903Z,1010.22
2018-01-15T11:39:23.905Z,1010.13
2018-01-15T11:40:23.918Z,1010.16
2018-01-15T11:41:23.922Z,1010.10
2018-01-15T11:42:23.931Z,1010.00
2018-01-15T11:43:23.955Z,1009.99
2018-01-15T11:44:23.961Z,1010.01
2018-01-15T11:45:23.970Z,1009.99
2018-01-15T11:46:23.979Z,1009.98
2018-01-15T11:47:23.988Z,1009.96
2018-01-15T11:48:24.010Z,1009.98
2018-01-15T11:49:24.019Z,1010.02
2018-01-15T11:50:24.034Z,1009.99
2018-01-15T11:51:24.046Z,1009.97
2018-01-15T11:52:24.053Z,1009.96
2018-01-15T11:53:24.073Z,1009.90
2018-01-15T11:54:24.083Z,1009.88
2018-01-15T11:55:24.085Z,1009.83
2018-01-15T11:56:24.093Z,1009.74
2018-01-15T11:57:24.115Z,1009.77
2018-01-15T11:58:24.130Z,1009.75
2018-01-15T11:59:24.145Z,1009.68
2018-01-15T12:00:24.142Z,1009.71
2018-01-15T12:01:24.157Z,1009.65
2018-01-15T12:02:24.172Z,1009.67
2018-01-15T12:03:24.186Z,1009.69
2018-01-15T12:04:24.202Z,1009.59
2018-01-15T12:05:24.197Z,1009.59